MiSS Bettye — WDC2608 — position and weather

sailwx.info

Track history (hours):
 
Tides and Currents Weather Stations Pressure Air Temp Water Temp Dewpoint Dewpoint Depression Visibility Wind Speed Wind Dir Waves Ship Positions

MiSS Bettye

Owner: Kirby Inland Marine, LP, Houston, TX. More information available from US FCC via Universal Licensing System and Coast Guard Vessel Documentation Center.

Last reported at 2017-Nov-16 10:24 UTC. Time now 2017-Nov-21 17:08 UTC.
Position N 29°51' W 093°58'.

Length 21 m; draft 3 m.

Type: . MMSI: 366995540.

Date/timePositionNaut miles runAvg speedWind from/ knotsBaromVisibWave heightAir tempDewpointWater temp
2017-Nov-16 10:24N 29°51' W 093°58'0 0.0
2017-Nov-16 10:00N 29°51' W 093°58'0 0.0
2017-Nov-16 05:09N 29°51' W 093°58'  
2017-Nov-13 01:04N 30°04' W 093°24'0 4.1
2017-Nov-13 00:59N 30°04' W 093°24'2 3.9
2017-Nov-13 00:29N 30°04' W 093°22'1 2.9
2017-Nov-12 23:59N 30°05' W 093°20'2 4.2
2017-Nov-12 23:29N 30°06' W 093°19'0 0.2
2017-Nov-12 22:59N 30°06' W 093°19'0 0.0
2017-Nov-12 22:29N 30°06' W 093°19'0 0.0
2017-Nov-12 21:59N 30°06' W 093°19'0 0.0
2017-Nov-12 21:29N 30°06' W 093°19'0 0.1
2017-Nov-12 20:59N 30°06' W 093°19'0 0.0
2017-Nov-12 20:29N 30°06' W 093°19'0 0.0
2017-Nov-12 19:59N 30°06' W 093°19'0 0.0
2017-Nov-12 19:29N 30°06' W 093°19'0 0.0
2017-Nov-12 18:59N 30°06' W 093°19'0 0.4
2017-Nov-12 17:38N 30°06' W 093°18'0 2.3
2017-Nov-12 17:27N 30°06' W 093°18'1 1.4
2017-Nov-12 16:59N 30°05' W 093°17'1 1.9
2017-Nov-12 16:30N 30°05' W 093°17'1 1.5
2017-Nov-12 15:59N 30°04' W 093°16'0 0.9
2017-Nov-12 15:29N 30°04' W 093°16'0 0.0
2017-Nov-12 14:59N 30°04' W 093°16'0 0.0
2017-Nov-12 14:27N 30°03' W 093°16'0 0.0
2017-Nov-12 13:55N 30°03' W 093°16'1 1.4
2017-Nov-12 13:27N 30°03' W 093°16'2 3.9
2017-Nov-12 12:59N 30°02' W 093°14'2 3.8
2017-Nov-12 12:29N 29°60' W 093°13'3 4.2
2017-Nov-12 11:53N 29°58' W 093°11'38 3.8
2017-Nov-12 01:55N 29°54' W 092°28'3 3.8
2017-Nov-12 01:15N 29°53' W 092°25'1 4.0
2017-Nov-12 00:59N 29°53' W 092°24'6 1.9
2017-Nov-11 21:39N 29°49' W 092°18'0 0.2
2017-Nov-11 21:29N 29°49' W 092°18'0 0.1
2017-Nov-11 20:59N 29°49' W 092°17'0 0.2
2017-Nov-11 20:29N 29°49' W 092°17'0 0.1
2017-Nov-11 19:59N 29°49' W 092°17'0 0.0
2017-Nov-11 19:29N 29°49' W 092°17'0 0.0
2017-Nov-11 18:59N 29°49' W 092°17'0 0.1
2017-Nov-11 18:29N 29°49' W 092°17'0 0.7
2017-Nov-11 17:59N 29°49' W 092°17'2 4.1
2017-Nov-11 17:29N 29°48' W 092°15'2 4.0
2017-Nov-11 16:59N 29°47' W 092°13'1 1.2
2017-Nov-11 16:29N 29°47' W 092°12'  
Track history (hours):
 
Tides and Currents Weather Stations Pressure Air Temp Water Temp Dewpoint Dewpoint Depression Visibility Wind Speed Wind Dir Waves Ship Positions

MiSS Bettye

Owner: Kirby Inland Marine, LP, Houston, TX. More information available from US FCC via Universal Licensing System and Coast Guard Vessel Documentation Center.

Last reported at 2017-Nov-16 10:24 UTC. Time now 2017-Nov-21 17:08 UTC.
Position N 29°51' W 093°58'.

Length 21 m; draft 3 m.

Type: . MMSI: 366995540.

Date/timePositionNaut miles runAvg speedWind from/ knotsBaromVisibWave heightAir tempDewpointWater temp
2017-Nov-16 10:24N 29°51' W 093°58'0 0.0
2017-Nov-16 10:00N 29°51' W 093°58'0 0.0
2017-Nov-16 05:09N 29°51' W 093°58'  
2017-Nov-13 01:04N 30°04' W 093°24'0 4.1
2017-Nov-13 00:59N 30°04' W 093°24'2 3.9
2017-Nov-13 00:29N 30°04' W 093°22'1 2.9
2017-Nov-12 23:59N 30°05' W 093°20'2 4.2
2017-Nov-12 23:29N 30°06' W 093°19'0 0.2
2017-Nov-12 22:59N 30°06' W 093°19'0 0.0
2017-Nov-12 22:29N 30°06' W 093°19'0 0.0
2017-Nov-12 21:59N 30°06' W 093°19'0 0.0
2017-Nov-12 21:29N 30°06' W 093°19'0 0.1
2017-Nov-12 20:59N 30°06' W 093°19'0 0.0
2017-Nov-12 20:29N 30°06' W 093°19'0 0.0
2017-Nov-12 19:59N 30°06' W 093°19'0 0.0
2017-Nov-12 19:29N 30°06' W 093°19'0 0.0
2017-Nov-12 18:59N 30°06' W 093°19'0 0.4
2017-Nov-12 17:38N 30°06' W 093°18'0 2.3
2017-Nov-12 17:27N 30°06' W 093°18'1 1.4
2017-Nov-12 16:59N 30°05' W 093°17'1 1.9
2017-Nov-12 16:30N 30°05' W 093°17'1 1.5
2017-Nov-12 15:59N 30°04' W 093°16'0 0.9
2017-Nov-12 15:29N 30°04' W 093°16'0 0.0
2017-Nov-12 14:59N 30°04' W 093°16'0 0.0
2017-Nov-12 14:27N 30°03' W 093°16'0 0.0
2017-Nov-12 13:55N 30°03' W 093°16'1 1.4
2017-Nov-12 13:27N 30°03' W 093°16'2 3.9
2017-Nov-12 12:59N 30°02' W 093°14'2 3.8
2017-Nov-12 12:29N 29°60' W 093°13'3 4.2
2017-Nov-12 11:53N 29°58' W 093°11'38 3.8
2017-Nov-12 01:55N 29°54' W 092°28'3 3.8
2017-Nov-12 01:15N 29°53' W 092°25'1 4.0
2017-Nov-12 00:59N 29°53' W 092°24'6 1.9
2017-Nov-11 21:39N 29°49' W 092°18'0 0.2
2017-Nov-11 21:29N 29°49' W 092°18'0 0.1
2017-Nov-11 20:59N 29°49' W 092°17'0 0.2
2017-Nov-11 20:29N 29°49' W 092°17'0 0.1
2017-Nov-11 19:59N 29°49' W 092°17'0 0.0
2017-Nov-11 19:29N 29°49' W 092°17'0 0.0
2017-Nov-11 18:59N 29°49' W 092°17'0 0.1
2017-Nov-11 18:29N 29°49' W 092°17'0 0.7
2017-Nov-11 17:59N 29°49' W 092°17'2 4.1
2017-Nov-11 17:29N 29°48' W 092°15'2 4.0
2017-Nov-11 16:59N 29°47' W 092°13'1 1.2
2017-Nov-11 16:29N 29°47' W 092°12'  

Dump ship's entire track history